createdAt,value
2022-12-17T00:01:57.408Z,-8.64
2022-12-17T00:04:44.955Z,-9.72
2022-12-17T00:07:30.860Z,-9.11
2022-12-17T00:10:16.941Z,-9.01
2022-12-17T00:13:05.355Z,-8.99
2022-12-17T00:15:51.270Z,-9.22
2022-12-17T00:18:37.259Z,-8.92
2022-12-17T00:21:27.201Z,-8.99
2022-12-17T00:24:13.281Z,-9.25
2022-12-17T00:26:59.526Z,-9.56
2022-12-17T00:29:45.712Z,-9.39
2022-12-17T00:32:31.710Z,-9.54
2022-12-17T00:35:17.661Z,-9.60
2022-12-17T00:38:06.455Z,-9.48
2022-12-17T00:40:52.667Z,-9.41
2022-12-17T00:43:39.963Z,-9.30
2022-12-17T00:46:25.859Z,-9.38
2022-12-17T00:49:11.834Z,-9.17
2022-12-17T00:51:57.574Z,-9.21
2022-12-17T00:54:44.685Z,-9.09
2022-12-17T00:57:30.632Z,-9.17
2022-12-17T01:00:16.644Z,-9.52
2022-12-17T01:03:07.291Z,-9.56
2022-12-17T01:05:53.208Z,-9.69
2022-12-17T01:08:39.685Z,-9.80
2022-12-17T01:11:26.818Z,-9.68
2022-12-17T01:14:12.514Z,-9.78
2022-12-17T01:17:01.205Z,-10.46
2022-12-17T01:19:46.541Z,-10.10
2022-12-17T01:22:32.247Z,-10.18
2022-12-17T01:25:18.912Z,-10.27
2022-12-17T01:28:09.605Z,-10.26
2022-12-17T01:30:56.352Z,-10.12
2022-12-17T01:33:42.601Z,-10.18
2022-12-17T01:36:28.581Z,-10.11
2022-12-17T01:39:30.276Z,-10.00
2022-12-17T01:42:15.970Z,-9.99
2022-12-17T01:45:12.036Z,-9.83
2022-12-17T01:48:02.233Z,-9.94
2022-12-17T01:50:52.654Z,-9.94
2022-12-17T01:53:43.077Z,-10.00
2022-12-17T01:56:30.051Z,-10.17
2022-12-17T01:59:17.144Z,-10.27
2022-12-17T02:02:04.485Z,-10.33
2022-12-17T02:04:51.014Z,-10.55
2022-12-17T02:08:06.859Z,-10.44
2022-12-17T02:11:02.281Z,-10.52
2022-12-17T02:13:54.846Z,-10.51
2022-12-17T02:16:49.703Z,-10.61
2022-12-17T02:19:49.846Z,-10.54
2022-12-17T02:22:53.029Z,-10.53
2022-12-17T02:25:47.160Z,-10.55
2022-12-17T02:28:34.705Z,-10.62
2022-12-17T02:31:33.517Z,-10.79
2022-12-17T02:34:20.290Z,-10.90
2022-12-17T02:37:08.706Z,-11.13
2022-12-17T02:39:56.817Z,-11.18
2022-12-17T02:42:45.287Z,-10.82
2022-12-17T02:45:33.992Z,-10.81
2022-12-17T02:48:20.960Z,-10.95
2022-12-17T02:51:07.414Z,-11.08
2022-12-17T02:53:53.905Z,-10.96
2022-12-17T02:56:42.193Z,-11.28
2022-12-17T02:59:28.365Z,-11.38
2022-12-17T03:02:27.591Z,-11.48
2022-12-17T03:05:42.927Z,-11.47
2022-12-17T03:08:19.895Z,-11.41
2022-12-17T03:11:05.731Z,-11.32
2022-12-17T03:13:51.602Z,-11.39
2022-12-17T03:16:46.548Z,-11.24
2022-12-17T03:19:33.571Z,-11.22
2022-12-17T03:22:19.734Z,-11.17
2022-12-17T03:25:01.884Z,-11.30
2022-12-17T03:27:47.683Z,-11.40
2022-12-17T03:30:48.862Z,-11.38
2022-12-17T03:33:35.660Z,-11.52
2022-12-17T03:36:23.741Z,-11.63
2022-12-17T03:39:09.639Z,-11.69
2022-12-17T03:41:55.612Z,-11.65
2022-12-17T03:44:41.541Z,-11.66
2022-12-17T03:47:27.609Z,-11.58
2022-12-17T03:50:14.744Z,-11.51
2022-12-17T03:53:01.841Z,-11.50
2022-12-17T03:55:47.917Z,-11.65
2022-12-17T03:58:33.818Z,-11.91
2022-12-17T04:01:19.800Z,-12.04
2022-12-17T04:04:17.245Z,-11.29
2022-12-17T04:07:02.924Z,-11.97
2022-12-17T04:09:50.013Z,-12.13
2022-12-17T04:12:36.067Z,-12.15
2022-12-17T04:15:22.220Z,-12.21
2022-12-17T04:18:08.440Z,-12.14
2022-12-17T04:20:54.389Z,-12.12
2022-12-17T04:23:40.264Z,-12.09
2022-12-17T04:26:27.147Z,-11.96
2022-12-17T04:29:13.033Z,-11.91
2022-12-17T04:31:59.163Z,-11.93
2022-12-17T04:34:45.179Z,-11.93
2022-12-17T04:37:31.048Z,-12.47
2022-12-17T04:40:17.064Z,-11.97
2022-12-17T04:43:07.236Z,-12.46
2022-12-17T04:45:53.242Z,-12.32
2022-12-17T04:48:42.452Z,-12.31
2022-12-17T04:51:27.631Z,-12.41
2022-12-17T04:54:13.092Z,-12.57
2022-12-17T04:56:59.250Z,-12.58
2022-12-17T04:59:46.304Z,-12.45
2022-12-17T05:02:32.318Z,-12.63
2022-12-17T05:05:18.199Z,-12.42
2022-12-17T05:08:13.776Z,-12.43
2022-12-17T05:10:59.779Z,-12.36
2022-12-17T05:13:45.743Z,-12.40
2022-12-17T05:16:33.059Z,-12.41
2022-12-17T05:19:19.079Z,-12.41
2022-12-17T05:22:04.940Z,-12.60
2022-12-17T05:24:50.924Z,-12.70
2022-12-17T05:27:36.913Z,-12.71
2022-12-17T05:30:23.712Z,-12.77
2022-12-17T05:33:18.570Z,-12.75
2022-12-17T05:36:04.485Z,-12.67
2022-12-17T05:38:50.598Z,-12.70
2022-12-17T05:41:36.440Z,-12.71
2022-12-17T05:44:22.262Z,-12.70
2022-12-17T05:47:08.275Z,-12.51
2022-12-17T05:50:03.350Z,-12.74
2022-12-17T05:52:49.528Z,-12.79
2022-12-17T05:55:36.440Z,-12.81
2022-12-17T05:58:24.004Z,-12.84
2022-12-17T06:01:13.942Z,-12.94
2022-12-17T06:03:59.922Z,-12.93
2022-12-17T06:06:46.981Z,-12.96
2022-12-17T06:09:32.942Z,-12.87
2022-12-17T06:12:18.928Z,-12.98
2022-12-17T06:15:04.998Z,-12.78
2022-12-17T06:17:51.056Z,-13.00
2022-12-17T06:20:37.034Z,-13.22
2022-12-17T06:23:26.663Z,-13.14
2022-12-17T06:26:13.200Z,-13.22
2022-12-17T06:28:59.069Z,-13.28
2022-12-17T06:31:45.166Z,-13.43
2022-12-17T06:34:27.582Z,-13.59
2022-12-17T06:37:13.305Z,-13.42
2022-12-17T06:40:00.451Z,-13.32
2022-12-17T06:42:46.443Z,-13.35
2022-12-17T06:45:32.300Z,-13.29
2022-12-17T06:48:22.231Z,-13.25
2022-12-17T06:51:08.070Z,-13.32
2022-12-17T06:53:54.060Z,-13.45
2022-12-17T06:56:41.271Z,-14.48
2022-12-17T06:59:27.216Z,-13.62
2022-12-17T07:02:13.495Z,-13.71
2022-12-17T07:04:59.765Z,-13.73
2022-12-17T07:07:45.767Z,-13.72
2022-12-17T07:10:31.807Z,-13.73
2022-12-17T07:13:25.044Z,-13.82
2022-12-17T07:16:11.026Z,-13.75
2022-12-17T07:18:57.045Z,-13.73
2022-12-17T07:21:44.501Z,-13.70
2022-12-17T07:24:30.658Z,-13.67
2022-12-17T07:27:16.509Z,-13.59
2022-12-17T07:30:03.943Z,-13.50
2022-12-17T07:32:49.773Z,-13.31
2022-12-17T07:35:35.674Z,-13.27
2022-12-17T07:38:23.653Z,-13.19
2022-12-17T07:41:09.584Z,-13.22
2022-12-17T07:43:55.483Z,-13.15
2022-12-17T07:46:43.395Z,-13.07
2022-12-17T07:49:29.363Z,-13.09
2022-12-17T07:52:15.277Z,-13.03
2022-12-17T07:55:01.196Z,-12.87
2022-12-17T07:57:47.221Z,-12.76
2022-12-17T08:00:34.191Z,-12.68
2022-12-17T08:03:21.632Z,-12.65
2022-12-17T08:06:10.802Z,-12.51
2022-12-17T08:08:56.716Z,-12.73
2022-12-17T08:11:42.835Z,-12.39
2022-12-17T08:14:28.688Z,-12.42
2022-12-17T08:17:14.589Z,-12.47
2022-12-17T08:20:02.001Z,-12.39
2022-12-17T08:22:47.903Z,-12.08
2022-12-17T08:25:33.945Z,-12.06
2022-12-17T08:31:31.885Z,-11.73
2022-12-17T08:34:17.855Z,-11.63
2022-12-17T08:37:04.876Z,-11.43
2022-12-17T08:39:50.806Z,-11.27
2022-12-17T08:42:36.774Z,-11.11
2022-12-17T08:45:23.455Z,-11.10
2022-12-17T08:48:09.513Z,-10.88
2022-12-17T08:50:55.285Z,-10.73
2022-12-17T08:53:42.659Z,-10.79
2022-12-17T08:56:28.669Z,-10.62
2022-12-17T08:59:14.387Z,-10.47
2022-12-17T09:02:03.163Z,-10.24
2022-12-17T09:04:48.896Z,-10.18
2022-12-17T09:07:34.789Z,-9.98
2022-12-17T09:10:22.378Z,-9.81
2022-12-17T09:13:08.467Z,-9.66
2022-12-17T09:15:54.379Z,-9.58
2022-12-17T09:18:41.348Z,-9.19
2022-12-17T09:21:27.919Z,-9.31
2022-12-17T09:24:13.993Z,-9.07
2022-12-17T09:27:01.135Z,-9.16
2022-12-17T09:29:47.082Z,-8.70
2022-12-17T09:32:47.609Z,-8.71
2022-12-17T09:35:33.992Z,-8.45
2022-12-17T09:38:19.697Z,-8.23
2022-12-17T09:41:13.720Z,-8.34
2022-12-17T09:44:06.652Z,-7.98
2022-12-17T09:46:59.770Z,-7.99
2022-12-17T09:49:47.453Z,-7.73
2022-12-17T09:52:39.732Z,-7.78
2022-12-17T09:55:36.784Z,-7.16
2022-12-17T09:58:23.004Z,-7.10
2022-12-17T10:01:16.140Z,-6.91
2022-12-17T10:04:04.584Z,-6.80
2022-12-17T10:06:51.194Z,-6.63
2022-12-17T10:09:37.962Z,-6.47
2022-12-17T10:12:44.103Z,-6.30
2022-12-17T10:15:34.292Z,-6.03
2022-12-17T10:18:26.121Z,-5.72
2022-12-17T10:21:16.421Z,-5.72
2022-12-17T10:24:02.375Z,-5.55
2022-12-17T10:26:50.707Z,-5.47
2022-12-17T10:29:44.008Z,-5.27
2022-12-17T10:32:40.884Z,-6.46
2022-12-17T10:35:37.433Z,-4.84
2022-12-17T10:38:31.183Z,-4.77
2022-12-17T10:41:31.854Z,-4.54
2022-12-17T10:44:17.588Z,-4.51
2022-12-17T10:47:03.109Z,-4.21
2022-12-17T10:49:48.827Z,-4.16
2022-12-17T10:52:46.223Z,-3.96
2022-12-17T10:55:42.378Z,-3.83
2022-12-17T10:58:32.668Z,-3.63
2022-12-17T11:01:24.434Z,-3.40
2022-12-17T11:04:12.333Z,-4.09
2022-12-17T11:07:05.656Z,-4.02
2022-12-17T11:10:07.019Z,-2.89
2022-12-17T11:13:00.848Z,-2.72
2022-12-17T11:15:54.099Z,-2.55
2022-12-17T11:18:44.144Z,-2.48
2022-12-17T11:21:34.193Z,-2.34
2022-12-17T11:24:23.037Z,-2.58
2022-12-17T11:27:14.007Z,-2.07
2022-12-17T11:29:59.896Z,-3.21
2022-12-17T11:33:16.395Z,-1.83
2022-12-17T11:36:14.414Z,-1.55
2022-12-17T11:39:11.354Z,-1.50
2022-12-17T11:42:11.407Z,-1.61
2022-12-17T11:45:10.520Z,-1.50
2022-12-17T11:48:05.196Z,-1.32
2022-12-17T11:51:01.392Z,-1.06
2022-12-17T11:54:08.037Z,-0.69
2022-12-17T11:56:58.683Z,-0.67
2022-12-17T11:59:54.215Z,-0.31
2022-12-17T12:03:04.249Z,-0.13
2022-12-17T12:06:02.208Z,0.09
2022-12-17T12:08:52.724Z,-0.12
2022-12-17T12:11:51.492Z,0.18
2022-12-17T12:14:50.781Z,0.22
2022-12-17T12:17:58.144Z,0.68
2022-12-17T12:21:29.563Z,1.02
2022-12-17T12:24:33.669Z,1.09
2022-12-17T12:27:31.005Z,1.38
2022-12-17T12:30:27.003Z,1.48
2022-12-17T12:33:22.058Z,1.71
2022-12-17T12:36:09.170Z,2.01
2022-12-17T12:38:59.176Z,1.96
2022-12-17T12:42:05.062Z,2.04
2022-12-17T12:45:00.396Z,2.12
2022-12-17T12:47:59.067Z,2.49
2022-12-17T12:50:53.755Z,2.58
2022-12-17T12:53:40.404Z,2.92
2022-12-17T12:56:45.885Z,2.73
2022-12-17T12:59:41.478Z,2.86
2022-12-17T13:02:43.508Z,2.94
2022-12-17T13:05:34.058Z,3.26
2022-12-17T13:08:21.140Z,3.44
2022-12-17T13:10:51.092Z,3.46
2022-12-17T13:13:32.827Z,3.67
2022-12-17T13:16:06.267Z,3.79
2022-12-17T13:18:40.355Z,4.01
2022-12-17T13:21:29.581Z,3.70
2022-12-17T13:23:58.995Z,3.67
2022-12-17T13:26:44.422Z,3.54
2022-12-17T13:29:24.259Z,3.51
2022-12-17T13:32:15.116Z,3.57
2022-12-17T13:35:10.555Z,4.31
2022-12-17T13:37:48.459Z,3.96
2022-12-17T13:40:35.522Z,4.31
2022-12-17T13:43:04.454Z,4.46
2022-12-17T13:45:35.779Z,4.88
2022-12-17T13:48:04.303Z,4.74
2022-12-17T13:50:34.689Z,4.80
2022-12-17T13:53:12.848Z,3.95
2022-12-17T13:55:52.171Z,4.70
2022-12-17T13:58:28.352Z,4.13
2022-12-17T14:01:08.087Z,4.07
2022-12-17T14:04:04.655Z,4.47
2022-12-17T14:06:29.059Z,4.15
2022-12-17T14:08:59.536Z,4.80
2022-12-17T14:11:46.089Z,5.21
2022-12-17T14:14:22.183Z,5.25
2022-12-17T14:16:51.137Z,4.99
2022-12-17T14:19:19.815Z,5.18
2022-12-17T14:21:48.597Z,4.55
2022-12-17T14:24:20.363Z,4.58
2022-12-17T14:26:50.939Z,5.81
2022-12-17T14:29:24.951Z,5.99
2022-12-17T14:31:56.501Z,6.80
2022-12-17T14:34:24.935Z,7.78
2022-12-17T14:36:58.784Z,8.60
2022-12-17T14:39:30.801Z,9.87
2022-12-17T14:42:28.707Z,9.50
2022-12-17T14:44:59.831Z,9.07
2022-12-17T14:47:30.900Z,8.12
2022-12-17T14:50:04.311Z,7.39
2022-12-17T14:52:40.934Z,5.80
2022-12-17T14:55:33.939Z,3.37
2022-12-17T14:58:21.142Z,2.37
2022-12-17T15:00:54.621Z,1.55
2022-12-17T15:03:27.560Z,0.92
2022-12-17T15:06:02.640Z,0.59
2022-12-17T15:08:34.719Z,0.15
2022-12-17T15:11:06.797Z,-0.17
2022-12-17T15:13:35.053Z,-0.32
2022-12-17T15:16:03.307Z,-0.72
2022-12-17T15:18:31.545Z,-1.13
2022-12-17T15:20:59.823Z,-1.42
2022-12-17T15:23:28.151Z,-1.73
2022-12-17T15:25:56.808Z,-2.04
2022-12-17T15:28:26.370Z,-2.06
2022-12-17T15:30:54.753Z,-2.14
2022-12-17T15:33:23.114Z,-2.39
2022-12-17T15:35:51.494Z,-2.50
2022-12-17T15:38:19.723Z,-2.50
2022-12-17T15:40:48.033Z,-2.70
2022-12-17T15:43:15.931Z,-2.72
2022-12-17T15:45:47.934Z,-2.74
2022-12-17T15:48:18.523Z,-2.86
2022-12-17T15:50:46.918Z,-2.92
2022-12-17T15:53:15.468Z,-3.33
2022-12-17T15:55:43.805Z,-3.40
2022-12-17T15:58:13.905Z,-3.50
2022-12-17T16:00:42.194Z,-3.71
2022-12-17T16:03:12.013Z,-3.93
2022-12-17T16:05:40.368Z,-4.13
2022-12-17T16:08:08.642Z,-4.28
2022-12-17T16:10:37.792Z,-4.44
2022-12-17T16:13:06.239Z,-4.56
2022-12-17T16:15:34.543Z,-4.56
2022-12-17T16:18:04.563Z,-4.74
2022-12-17T16:20:34.463Z,-4.82
2022-12-17T16:23:02.699Z,-5.20
2022-12-17T16:25:30.947Z,-5.31
2022-12-17T16:27:59.191Z,-5.34
2022-12-17T16:30:27.402Z,-5.40
2022-12-17T16:32:59.421Z,-5.49
2022-12-17T16:35:28.383Z,-5.51
2022-12-17T16:37:57.974Z,-5.63
2022-12-17T16:40:26.145Z,-5.84
2022-12-17T16:42:54.332Z,-5.88
2022-12-17T16:45:22.589Z,-5.67
2022-12-17T16:47:51.075Z,-5.50
2022-12-17T16:50:19.281Z,-5.63
2022-12-17T16:52:47.673Z,-5.71
2022-12-17T16:55:17.492Z,-5.88
2022-12-17T16:57:48.559Z,-5.97
2022-12-17T17:00:17.235Z,-6.22
2022-12-17T17:02:51.442Z,-6.14
2022-12-17T17:05:21.394Z,-6.42
2022-12-17T17:07:49.680Z,-6.78
2022-12-17T17:10:19.365Z,-6.77
2022-12-17T17:12:47.588Z,-6.97
2022-12-17T17:15:16.000Z,-6.79
2022-12-17T17:17:54.375Z,-6.96
2022-12-17T17:20:24.517Z,-7.05
2022-12-17T17:22:52.759Z,-7.20
2022-12-17T17:25:22.549Z,-7.32
2022-12-17T17:27:50.820Z,-7.42
2022-12-17T17:30:19.219Z,-7.57
2022-12-17T17:32:47.441Z,-7.63
2022-12-17T17:35:16.448Z,-7.53
2022-12-17T17:37:44.722Z,-7.45
2022-12-17T17:40:14.521Z,-7.50
2022-12-17T17:42:48.696Z,-7.44
2022-12-17T17:45:19.786Z,-7.45
2022-12-17T17:47:48.051Z,-7.56
2022-12-17T17:50:16.316Z,-7.47
2022-12-17T17:52:44.502Z,-7.56
2022-12-17T17:55:13.051Z,-7.48
2022-12-17T17:57:41.262Z,-7.43
2022-12-17T18:00:13.094Z,-7.38
2022-12-17T18:02:41.455Z,-7.28
2022-12-17T18:05:10.572Z,-7.15
2022-12-17T18:07:38.816Z,-7.12
2022-12-17T18:10:09.634Z,-7.42
2022-12-17T18:12:55.604Z,-7.28
2022-12-17T18:15:25.190Z,-7.24
2022-12-17T18:17:53.403Z,-7.17
2022-12-17T18:20:21.677Z,-7.37
2022-12-17T18:22:50.560Z,-7.63
2022-12-17T18:25:18.956Z,-7.56
2022-12-17T18:27:47.212Z,-7.73
2022-12-17T18:30:16.260Z,-8.00
2022-12-17T18:32:46.119Z,-8.02
2022-12-17T18:35:14.372Z,-8.09
2022-12-17T18:37:42.815Z,-8.14
2022-12-17T18:40:12.103Z,-8.21
2022-12-17T18:42:59.008Z,-8.30
2022-12-17T18:45:27.292Z,-8.40
2022-12-17T18:47:56.913Z,-8.46
2022-12-17T18:50:25.253Z,-8.66
2022-12-17T18:52:53.505Z,-8.53
2022-12-17T18:55:21.756Z,-8.68
2022-12-17T18:57:50.092Z,-8.79
2022-12-17T19:00:18.956Z,-8.61
2022-12-17T19:02:47.295Z,-8.67
2022-12-17T19:05:17.550Z,-8.60
2022-12-17T19:07:45.761Z,-8.75
2022-12-17T19:10:16.604Z,-8.74
2022-12-17T19:12:45.454Z,-8.76
2022-12-17T19:15:13.768Z,-8.84
2022-12-17T19:17:41.999Z,-9.04
2022-12-17T19:20:11.771Z,-8.95
2022-12-17T19:22:41.394Z,-9.13
2022-12-17T19:25:11.405Z,-9.21
2022-12-17T19:27:40.487Z,-9.18
2022-12-17T19:30:13.857Z,-9.19
2022-12-17T19:32:42.438Z,-9.26
2022-12-17T19:35:11.071Z,-9.33
2022-12-17T19:37:39.655Z,-10.92
2022-12-17T19:40:11.081Z,-9.45
2022-12-17T19:42:39.369Z,-9.49
2022-12-17T19:45:09.104Z,-9.60
2022-12-17T19:47:37.332Z,-10.99
2022-12-17T19:50:07.009Z,-9.48
2022-12-17T19:52:35.329Z,-9.33
2022-12-17T19:55:03.902Z,-9.32
2022-12-17T19:57:36.404Z,-9.12
2022-12-17T20:00:07.506Z,-9.04
2022-12-17T20:02:41.206Z,-8.82
2022-12-17T20:05:11.123Z,-8.82
2022-12-17T20:07:41.187Z,-8.70
2022-12-17T20:10:10.102Z,-8.44
2022-12-17T20:12:39.673Z,-8.39
2022-12-17T20:15:08.727Z,-8.30
2022-12-17T20:17:36.988Z,-8.35
2022-12-17T20:20:06.155Z,-8.58
2022-12-17T20:22:34.432Z,-8.73
2022-12-17T20:25:04.884Z,-8.70
2022-12-17T20:27:33.215Z,-8.79
2022-12-17T20:30:02.833Z,-8.90
2022-12-17T20:32:31.122Z,-8.88
2022-12-17T20:35:00.762Z,-9.21
2022-12-17T20:37:29.052Z,-9.12
2022-12-17T20:39:57.330Z,-9.03
2022-12-17T20:42:25.620Z,-9.25
2022-12-17T20:44:53.879Z,-9.15
2022-12-17T20:47:23.519Z,-9.26
2022-12-17T20:49:51.766Z,-8.97
2022-12-17T20:52:20.339Z,-10.43
2022-12-17T20:54:49.359Z,-9.21
2022-12-17T20:57:17.713Z,-9.11
2022-12-17T20:59:46.082Z,-9.16
2022-12-17T21:02:19.109Z,-9.19
2022-12-17T21:04:52.594Z,-9.07
2022-12-17T21:07:22.444Z,-9.17
2022-12-17T21:09:50.692Z,-9.39
2022-12-17T21:12:20.314Z,-9.62
2022-12-17T21:14:48.718Z,-9.86
2022-12-17T21:17:17.008Z,-10.03
2022-12-17T21:19:45.274Z,-10.10
2022-12-17T21:22:14.990Z,-10.16
2022-12-17T21:24:43.296Z,-10.24
2022-12-17T21:27:14.925Z,-10.27
2022-12-17T21:29:43.535Z,-10.26
2022-12-17T21:32:11.925Z,-10.26
2022-12-17T21:34:40.840Z,-10.28
2022-12-17T21:37:11.095Z,-10.18
2022-12-17T21:39:40.966Z,-10.14
2022-12-17T21:42:27.318Z,-9.97
2022-12-17T21:44:55.598Z,-9.94
2022-12-17T21:47:24.055Z,-9.95
2022-12-17T21:49:52.305Z,-10.00
2022-12-17T21:52:20.696Z,-10.28
2022-12-17T21:54:50.294Z,-10.19
2022-12-17T21:57:18.502Z,-10.27
2022-12-17T21:59:46.833Z,-10.45
2022-12-17T22:02:15.771Z,-10.52
2022-12-17T22:04:44.294Z,-10.62
2022-12-17T22:07:15.032Z,-10.79
2022-12-17T22:09:52.767Z,-10.55
2022-12-17T22:12:52.313Z,-10.44
2022-12-17T22:15:20.727Z,-10.45
2022-12-17T22:17:49.845Z,-10.34
2022-12-17T22:20:18.235Z,-10.34
2022-12-17T22:22:46.775Z,-10.28
2022-12-17T22:25:15.194Z,-10.30
2022-12-17T22:27:44.954Z,-10.28
2022-12-17T22:30:35.335Z,-10.26
2022-12-17T22:33:17.435Z,-10.09
2022-12-17T22:36:18.282Z,-11.54
2022-12-17T22:42:37.913Z,-9.80
2022-12-17T22:44:49.154Z,-9.64
2022-12-17T22:44:51.283Z,-9.50
2022-12-17T22:47:21.327Z,-9.33
2022-12-17T22:49:49.624Z,-9.36
2022-12-17T22:52:18.914Z,-9.19
2022-12-17T22:54:48.896Z,-8.95
2022-12-17T22:57:36.024Z,-8.86
2022-12-17T23:00:15.827Z,-8.68
2022-12-17T23:02:44.199Z,-8.78
2022-12-17T23:05:12.523Z,-8.67
2022-12-17T23:07:40.851Z,-8.71
2022-12-17T23:10:10.325Z,-8.61
2022-12-17T23:12:54.352Z,-8.62
2022-12-17T23:15:30.428Z,-8.49
2022-12-17T23:18:01.970Z,-8.62
2022-12-17T23:20:33.343Z,-8.56
2022-12-17T23:23:02.445Z,-9.41
2022-12-17T23:25:31.307Z,-8.61
2022-12-17T23:27:59.638Z,-8.46
2022-12-17T23:30:29.488Z,-8.41
2022-12-17T23:32:57.766Z,-8.27
2022-12-17T23:35:26.616Z,-8.04
2022-12-17T23:37:55.296Z,-8.08
2022-12-17T23:40:23.606Z,-7.95
2022-12-17T23:42:51.907Z,-7.93
2022-12-17T23:45:20.391Z,-7.86
2022-12-17T23:47:50.014Z,-7.54
2022-12-17T23:50:18.508Z,-7.69
2022-12-17T23:52:46.724Z,-7.51
2022-12-17T23:55:15.152Z,-7.51
2022-12-17T23:57:43.818Z,-7.53
